createdAt,value
2019-04-25T06:35:38.380Z,7.70
2019-04-25T06:38:07.428Z,16.80
2019-04-25T06:40:36.253Z,16.60
2019-04-25T06:43:05.158Z,16.70
2019-04-25T06:45:51.927Z,16.90
2019-04-25T06:48:39.090Z,17.00
2019-04-25T06:51:08.113Z,17.10
2019-04-25T06:53:36.883Z,17.10
2019-04-25T06:56:06.239Z,17.20
2019-04-25T06:58:35.533Z,17.30
2019-04-25T07:01:04.493Z,17.40
2019-04-25T07:03:35.312Z,17.50
2019-04-25T07:06:03.949Z,17.40
2019-04-25T07:08:33.382Z,17.50
2019-04-25T07:11:03.920Z,17.70
2019-04-25T07:13:35.714Z,17.80
2019-04-25T07:16:04.732Z,17.80
2019-04-25T07:18:36.300Z,17.80
2019-04-25T07:21:04.281Z,17.60
2019-04-25T07:23:34.223Z,17.70
2019-04-25T07:26:10.577Z,17.90
2019-04-25T07:29:16.549Z,18.00
2019-04-25T07:32:05.863Z,18.20
2019-04-25T07:34:35.098Z,18.30
2019-04-25T07:37:03.961Z,18.60
2019-04-25T07:39:34.376Z,18.70
2019-04-25T07:42:04.126Z,18.70
2019-04-25T07:44:45.366Z,18.90
2019-04-25T07:47:04.121Z,19.00
2019-04-25T07:49:33.589Z,19.10
2019-04-25T07:52:03.654Z,19.30
2019-04-25T07:54:34.024Z,19.40
2019-04-25T07:57:03.687Z,19.40
2019-04-25T07:59:34.802Z,19.40
2019-04-25T08:02:03.446Z,19.50
2019-04-25T08:04:32.270Z,19.60
2019-04-25T08:07:01.033Z,19.60
2019-04-25T08:09:30.229Z,19.80
2019-04-25T08:11:59.087Z,19.90
2019-04-25T08:14:39.326Z,20.10
2019-04-25T08:17:08.805Z,20.20
2019-04-25T08:19:37.744Z,20.20
2019-04-25T08:22:06.518Z,20.10
2019-04-25T08:24:37.120Z,20.20
2019-04-25T08:27:06.219Z,20.40
2019-04-25T08:29:38.625Z,20.50
2019-04-25T08:32:05.976Z,20.60
2019-04-25T08:34:36.039Z,20.70
2019-04-25T08:37:17.063Z,20.90
2019-04-25T08:39:38.116Z,20.90
2019-04-25T08:42:06.501Z,20.90
2019-04-25T08:44:35.965Z,21.10
2019-04-25T08:47:05.897Z,21.10
2019-04-25T08:49:49.356Z,21.10
2019-04-25T08:52:17.693Z,21.20
2019-04-25T08:55:04.316Z,21.10
2019-04-25T08:57:54.554Z,21.30
2019-04-25T09:00:36.981Z,21.30
2019-04-25T09:03:09.629Z,21.20
2019-04-25T09:05:44.064Z,21.40
2019-04-25T09:08:14.160Z,21.50
2019-04-25T09:10:44.903Z,21.70
2019-04-25T09:13:13.987Z,21.70
2019-04-25T09:15:45.430Z,21.80
2019-04-25T09:18:14.145Z,21.90
2019-04-25T09:20:43.746Z,22.10
2019-04-25T09:23:13.695Z,21.90
2019-04-25T09:25:44.448Z,22.00
2019-04-25T09:28:14.252Z,22.10
2019-04-25T09:30:44.854Z,22.20
2019-04-25T09:33:14.166Z,22.30
2019-04-25T09:35:44.855Z,22.40
2019-04-25T09:38:13.426Z,22.40
2019-04-25T09:40:44.175Z,22.40
2019-04-25T09:43:13.730Z,22.50
2019-04-25T09:45:58.906Z,22.60
2019-04-25T09:48:46.874Z,22.70
2019-04-25T09:51:33.830Z,22.80
2019-04-25T09:54:34.340Z,22.80
2019-04-25T09:57:21.069Z,22.90
2019-04-25T09:59:49.860Z,22.90
2019-04-25T10:02:18.817Z,23.10
2019-04-25T10:04:48.168Z,23.20
2019-04-25T10:07:17.280Z,23.30
2019-04-25T10:09:46.668Z,23.30
2019-04-25T10:12:16.984Z,23.30
2019-04-25T10:15:04.453Z,23.30
2019-04-25T10:17:33.888Z,23.30
2019-04-25T10:20:03.113Z,23.40
2019-04-25T10:22:31.864Z,23.50
2019-04-25T10:25:00.915Z,23.50
2019-04-25T10:27:30.074Z,23.60
2019-04-25T10:29:59.221Z,23.60
2019-04-25T10:32:28.074Z,23.50
2019-04-25T10:34:56.767Z,23.50
2019-04-25T10:37:26.090Z,23.50
2019-04-25T10:39:55.663Z,23.60
2019-04-25T10:42:24.573Z,23.70
2019-04-25T10:44:56.396Z,23.60
2019-04-25T10:47:23.723Z,23.60
2019-04-25T10:49:53.695Z,23.70
2019-04-25T10:52:23.430Z,23.80
2019-04-25T10:54:54.132Z,23.90
2019-04-25T10:57:24.948Z,24.00
2019-04-25T11:00:05.402Z,24.00
2019-04-25T11:02:25.969Z,24.10
2019-04-25T11:05:03.577Z,24.20
2019-04-25T11:07:33.900Z,24.30
2019-04-25T11:10:03.611Z,24.20
2019-04-25T11:12:33.820Z,24.20
2019-04-25T11:15:04.020Z,24.30
2019-04-25T11:17:33.836Z,24.30
2019-04-25T11:20:03.625Z,24.40
2019-04-25T11:22:34.224Z,24.40
2019-04-25T11:25:03.649Z,24.40
2019-04-25T11:27:34.001Z,24.30
2019-04-25T11:30:10.896Z,24.30
2019-04-25T11:32:34.040Z,24.40
2019-04-25T11:35:05.134Z,24.40
2019-04-25T11:37:34.353Z,24.50
2019-04-25T11:40:09.474Z,24.60
2019-04-25T11:42:38.905Z,24.70
2019-04-25T11:45:10.025Z,24.70
2019-04-25T11:47:39.174Z,24.60
2019-04-25T11:50:09.106Z,24.50
2019-04-25T11:52:38.165Z,24.20
2019-04-25T11:55:08.009Z,24.30
2019-04-25T11:57:36.909Z,24.50
2019-04-25T12:00:06.522Z,24.70
2019-04-25T12:02:35.817Z,24.80
2019-04-25T12:05:05.434Z,24.90
2019-04-25T12:07:34.372Z,25.00
2019-04-25T12:10:03.801Z,25.00
2019-04-25T12:12:33.877Z,24.90
2019-04-25T12:15:04.450Z,24.90
2019-04-25T12:17:35.075Z,25.20
2019-04-25T12:20:04.014Z,25.30
2019-04-25T12:23:04.120Z,25.40
2019-04-25T12:25:23.738Z,25.60
2019-04-25T12:27:53.816Z,25.70
2019-04-25T12:30:36.755Z,25.90
2019-04-25T12:32:54.157Z,25.80
2019-04-25T12:35:24.270Z,25.80
2019-04-25T12:37:53.999Z,25.90
2019-04-25T12:40:24.207Z,25.90
2019-04-25T12:42:53.201Z,25.80
2019-04-25T12:45:45.706Z,26.00
2019-04-25T12:48:15.969Z,26.00
2019-04-25T12:50:46.279Z,26.10
2019-04-25T12:53:15.745Z,26.10
2019-04-25T12:55:44.829Z,26.30
2019-04-25T12:58:13.698Z,26.40
2019-04-25T13:00:49.589Z,26.40
2019-04-25T13:03:14.288Z,26.50
2019-04-25T13:05:44.223Z,26.50
2019-04-25T13:08:14.372Z,26.60
2019-04-25T13:10:44.447Z,26.60
2019-04-25T13:13:15.372Z,26.70
2019-04-25T13:15:46.057Z,26.60
2019-04-25T13:18:15.284Z,26.80
2019-04-25T13:20:44.339Z,26.90
2019-04-25T13:23:14.413Z,27.00
2019-04-25T13:25:44.169Z,27.20
2019-04-25T13:28:35.472Z,27.20
2019-04-25T13:31:33.218Z,27.20
2019-04-25T13:34:05.913Z,27.30
2019-04-25T13:36:35.096Z,27.50
2019-04-25T13:39:07.214Z,27.60
2019-04-25T13:41:36.107Z,27.60
2019-04-25T13:44:05.186Z,27.70
2019-04-25T13:46:34.360Z,27.90
2019-04-25T13:49:04.295Z,28.10
2019-04-25T13:51:33.440Z,28.00
2019-04-25T13:54:02.158Z,28.00
2019-04-25T13:56:31.157Z,28.00
2019-04-25T13:58:59.910Z,28.10
2019-04-25T14:01:29.653Z,28.30
2019-04-25T14:03:58.820Z,28.30
2019-04-25T14:06:28.389Z,28.40
2019-04-25T14:08:57.374Z,28.30
2019-04-25T14:11:26.321Z,28.30
2019-04-25T14:13:55.388Z,28.40
2019-04-25T14:16:40.811Z,28.40
2019-04-25T14:19:38.961Z,28.40
2019-04-25T14:22:07.656Z,28.40
2019-04-25T14:24:36.475Z,28.50
2019-04-25T14:27:06.197Z,28.70
2019-04-25T14:29:35.036Z,28.80
2019-04-25T14:32:05.656Z,29.00
2019-04-25T14:34:34.494Z,29.10
2019-04-25T14:37:03.534Z,29.10
2019-04-25T14:39:32.244Z,29.20
2019-04-25T14:42:00.955Z,29.40
2019-04-25T14:44:29.695Z,29.30
2019-04-25T14:46:58.792Z,29.40
2019-04-25T14:49:28.305Z,29.50
2019-04-25T14:51:57.164Z,29.50
2019-04-25T14:54:32.687Z,29.60
2019-04-25T14:57:06.470Z,29.60
2019-04-25T14:59:35.191Z,29.50
2019-04-25T15:02:04.145Z,29.70
2019-04-25T15:04:33.157Z,29.90
2019-04-25T15:07:02.093Z,30.00
2019-04-25T15:09:31.052Z,30.20
2019-04-25T15:11:59.767Z,30.50
2019-04-25T15:14:29.289Z,30.60
2019-04-25T15:16:58.232Z,30.50
2019-04-25T15:19:27.521Z,30.40
2019-04-25T15:21:56.408Z,30.40
2019-04-25T15:24:25.141Z,30.60
2019-04-25T15:26:53.904Z,30.50
2019-04-25T15:29:22.608Z,30.20
2019-04-25T15:31:56.133Z,30.10
2019-04-25T15:34:23.608Z,30.10
2019-04-25T15:36:58.262Z,30.00
2019-04-25T15:40:04.841Z,30.00
2019-04-25T15:42:58.288Z,29.80
2019-04-25T15:45:37.513Z,29.50
2019-04-25T15:48:07.425Z,29.30
2019-04-25T15:50:36.161Z,29.40
2019-04-25T15:53:05.159Z,29.50
2019-04-25T15:55:34.767Z,29.60
2019-04-25T15:58:03.764Z,29.60
2019-04-25T16:00:36.552Z,29.50
2019-04-25T16:03:06.281Z,29.40
2019-04-25T16:05:35.631Z,29.40
2019-04-25T16:08:04.865Z,29.20
2019-04-25T16:10:34.034Z,29.20
2019-04-25T16:13:03.015Z,29.20
2019-04-25T16:15:31.747Z,29.10
2019-04-25T16:18:00.673Z,28.90
2019-04-25T16:20:29.566Z,28.80
2019-04-25T16:22:58.701Z,28.80
2019-04-25T16:25:27.724Z,28.90
2019-04-25T16:27:56.430Z,29.00
2019-04-25T16:30:29.574Z,29.20
2019-04-25T16:32:58.677Z,29.20
2019-04-25T16:35:28.591Z,29.10
2019-04-25T16:37:58.311Z,28.90
2019-04-25T16:40:27.538Z,28.90
2019-04-25T16:42:58.908Z,29.10
2019-04-25T16:45:27.874Z,28.90
2019-04-25T16:47:56.857Z,28.80
2019-04-25T16:50:26.085Z,28.60
2019-04-25T16:52:55.248Z,28.40
2019-04-25T16:55:24.296Z,28.30
2019-04-25T16:57:53.128Z,28.10
2019-04-25T17:00:38.332Z,28.10
2019-04-25T17:03:07.213Z,28.00
2019-04-25T17:05:37.096Z,27.80
2019-04-25T17:08:06.476Z,27.70
2019-04-25T17:10:35.264Z,27.50
2019-04-25T17:13:05.870Z,27.40
2019-04-25T17:15:52.392Z,27.40
2019-04-25T17:18:24.856Z,27.30
2019-04-25T17:21:19.318Z,27.30
2019-04-25T17:23:48.870Z,27.20
2019-04-25T17:26:19.266Z,27.10
2019-04-25T17:28:50.331Z,27.10
2019-04-25T17:31:34.869Z,27.10
2019-04-25T17:34:14.255Z,27.00
2019-04-25T17:37:03.345Z,27.00
2019-04-25T17:39:37.504Z,26.80
2019-04-25T17:42:06.292Z,26.50
2019-04-25T17:44:36.162Z,26.40
2019-04-25T17:47:06.406Z,26.30
2019-04-25T17:49:36.693Z,26.20
2019-04-25T17:52:05.797Z,26.10
2019-04-25T17:54:36.596Z,26.10
2019-04-25T17:57:05.585Z,26.10
2019-04-25T17:59:34.773Z,26.00
2019-04-25T18:02:03.725Z,25.90
2019-04-25T18:04:34.040Z,25.80
2019-04-25T18:07:03.236Z,25.80
2019-04-25T18:09:32.283Z,25.70
2019-04-25T18:12:01.393Z,25.60
2019-04-25T18:14:30.113Z,25.60
2019-04-25T18:16:59.109Z,25.50
2019-04-25T18:19:32.641Z,25.30
2019-04-25T18:22:08.121Z,25.30
2019-04-25T18:25:00.540Z,25.20
2019-04-25T18:27:39.558Z,25.20
2019-04-25T18:30:08.817Z,25.00
2019-04-25T18:32:39.211Z,25.00
2019-04-25T18:35:20.653Z,25.00
2019-04-25T18:38:02.139Z,25.00
2019-04-25T18:40:36.897Z,24.90
2019-04-25T18:43:15.317Z,24.70
2019-04-25T18:45:46.590Z,24.70
2019-04-25T18:48:15.664Z,24.70
2019-04-25T18:50:44.678Z,24.70
2019-04-25T18:53:31.372Z,24.60
2019-04-25T18:56:06.698Z,24.50
2019-04-25T18:58:57.609Z,24.50
2019-04-25T19:01:44.034Z,24.40
2019-04-25T19:04:21.677Z,24.30
2019-04-25T19:06:57.793Z,24.30
2019-04-25T19:09:22.765Z,24.20
2019-04-25T19:11:52.092Z,24.20
2019-04-25T19:14:27.145Z,24.10
2019-04-25T19:16:57.191Z,24.10
2019-04-25T19:19:27.224Z,24.10
2019-04-25T19:21:55.953Z,24.00
2019-04-25T19:24:25.032Z,24.10
2019-04-25T19:26:53.744Z,24.10
2019-04-25T19:29:22.481Z,24.10
2019-04-25T19:31:52.348Z,24.00
2019-04-25T19:34:22.848Z,23.90
2019-04-25T19:36:51.812Z,23.80
2019-04-25T19:39:23.022Z,23.70
2019-04-25T19:42:12.899Z,23.60
2019-04-25T19:44:42.321Z,23.60
2019-04-25T19:47:11.484Z,23.60
2019-04-25T19:49:40.640Z,23.50
2019-04-25T19:52:10.496Z,23.50
2019-04-25T19:54:39.509Z,23.60
2019-04-25T19:57:08.576Z,23.60
2019-04-25T19:59:37.346Z,23.50
2019-04-25T20:02:11.165Z,23.40
2019-04-25T20:04:48.827Z,23.30
2019-04-25T20:07:23.345Z,23.40
2019-04-25T20:10:07.879Z,23.30
2019-04-25T20:12:40.344Z,23.30
2019-04-25T20:15:09.470Z,23.30
2019-04-25T20:17:38.176Z,23.30
2019-04-25T20:20:07.168Z,23.30
2019-04-25T20:22:35.954Z,23.20
2019-04-25T20:25:05.645Z,23.20
2019-04-25T20:27:34.638Z,23.20
2019-04-25T20:30:04.807Z,23.20
2019-04-25T20:32:33.681Z,23.10
2019-04-25T20:35:02.407Z,23.10
2019-04-25T20:37:31.126Z,23.00
2019-04-25T20:40:00.259Z,23.00
2019-04-25T20:42:29.299Z,23.00
2019-04-25T20:44:58.010Z,22.90
2019-04-25T20:47:26.726Z,22.90
2019-04-25T20:49:55.693Z,23.00
2019-04-25T20:52:24.434Z,22.90
2019-04-25T20:54:53.163Z,22.90
2019-04-25T20:57:22.196Z,22.90
2019-04-25T20:59:51.605Z,22.90
2019-04-25T21:02:20.537Z,22.90
2019-04-25T21:04:50.073Z,22.90
2019-04-25T21:07:19.052Z,22.90
2019-04-25T21:09:48.989Z,22.80
2019-04-25T21:12:18.709Z,22.80
2019-04-25T21:15:18.767Z,22.70
2019-04-25T21:17:54.164Z,22.70
2019-04-25T21:20:23.101Z,22.60
2019-04-25T21:22:51.884Z,22.60
2019-04-25T21:25:20.717Z,22.60
2019-04-25T21:27:50.172Z,22.60
2019-04-25T21:30:19.586Z,22.50
2019-04-25T21:32:53.055Z,22.50
2019-04-25T21:35:23.050Z,22.60
2019-04-25T21:37:52.583Z,22.50
2019-04-25T21:40:37.856Z,22.50
2019-04-25T21:43:10.516Z,22.50
2019-04-25T21:45:39.502Z,22.40
2019-04-25T21:48:08.529Z,22.40
2019-04-25T21:50:37.753Z,22.40
2019-04-25T21:53:06.856Z,22.40
2019-04-25T21:55:35.825Z,22.40
2019-04-25T21:58:04.820Z,22.40
2019-04-25T22:01:02.302Z,22.40
2019-04-25T22:03:31.169Z,22.30
2019-04-25T22:06:00.775Z,22.30
2019-04-25T22:08:30.005Z,22.20
2019-04-25T22:10:59.759Z,22.20
2019-04-25T22:13:28.484Z,22.20
2019-04-25T22:15:58.112Z,22.20
2019-04-25T22:18:27.628Z,22.20
2019-04-25T22:20:56.903Z,22.20
2019-04-25T22:23:26.245Z,22.10
2019-04-25T22:25:56.299Z,22.10
2019-04-25T22:28:25.646Z,22.10
2019-04-25T22:30:57.813Z,22.00
2019-04-25T22:33:35.642Z,22.00
2019-04-25T22:36:13.685Z,22.00
2019-04-25T22:38:42.465Z,22.00
2019-04-25T22:41:11.637Z,22.00
2019-04-25T22:43:44.504Z,22.00
2019-04-25T22:46:25.266Z,22.00
2019-04-25T22:48:49.985Z,22.00
2019-04-25T22:51:19.040Z,21.90
2019-04-25T22:53:48.148Z,22.00
2019-04-25T22:56:16.959Z,22.00
2019-04-25T22:58:45.833Z,21.90
2019-04-25T23:01:43.721Z,21.90
2019-04-25T23:04:19.078Z,21.90
2019-04-25T23:06:48.062Z,21.90
2019-04-25T23:09:16.779Z,21.90
2019-04-25T23:11:46.109Z,21.90
2019-04-25T23:14:15.234Z,21.90
2019-04-25T23:16:43.973Z,21.90
2019-04-25T23:19:13.437Z,21.90
2019-04-25T23:21:42.926Z,21.90
2019-04-25T23:24:13.041Z,21.90
2019-04-25T23:27:20.456Z,21.90
2019-04-25T23:29:49.687Z,21.80
2019-04-25T23:32:18.782Z,20.80
2019-04-25T23:35:22.127Z,20.90
2019-04-25T23:37:37.237Z,20.90
2019-04-25T23:40:07.650Z,21.00
2019-04-25T23:42:36.416Z,21.10
2019-04-25T23:45:07.116Z,21.30
2019-04-25T23:47:36.679Z,21.30
2019-04-25T23:50:07.148Z,21.40
2019-04-25T23:52:36.025Z,21.40
2019-04-25T23:55:05.121Z,21.40
2019-04-25T23:57:33.900Z,21.30
